Time;durP1;ratioP1;P1;durP2;ratioP2;P2;SDS_P1;SDS_P2;PMS_P1;PMS_P2;Temp;Humidity;BMP_temperature;BMP_pressure;BME280_temperature;BME280_humidity;BME280_pressure;Samples;Min_cycle;Max_cycle;Signal;HPM_P1;HPM_P2
2023/08/31 00:02:04;;;;;;;3.77;1.90;;;;;;;;;;5118274;28;20269;-64
2023/08/31 00:04:32;;;;;;;2.37;1.90;;;;;;;;;;5114243;28;20256;-64
2023/08/31 00:07:00;;;;;;;4.57;1.67;;;;;;;;;;5113249;28;20230;-64
2023/08/31 00:09:29;;;;;;;2.53;2.10;;;;;;;;;;5118478;28;20205;-64
2023/08/31 00:11:57;;;;;;;2.80;2.30;;;;;;;;;;5118133;28;20231;-64
2023/08/31 00:14:26;;;;;;;4.00;2.07;;;;;;;;;;5118445;28;20250;-64
2023/08/31 00:16:57;;;;;;;4.67;1.77;;;;;;;;;;5118217;28;20212;-64
2023/08/31 00:19:27;;;;;;;2.00;1.70;;;;;;;;;;5118182;28;20212;-64
2023/08/31 00:21:55;;;;;;;1.83;1.57;;;;;;;;;;5116718;28;20722;-64
2023/08/31 00:24:28;;;;;;;3.47;1.87;;;;;;;;;;5117781;28;20212;-65
2023/08/31 00:26:56;;;;;;;3.47;1.60;;;;;;;;;;5113114;28;20211;-65
2023/08/31 00:29:25;;;;;;;3.93;1.83;;;;;;;;;;5103932;28;20203;-64
2023/08/31 00:31:53;;;;;;;3.97;1.63;;;;;;;;;;5100355;28;20222;-64
2023/08/31 00:34:21;;;;;;;1.90;1.80;;;;;;;;;;5106745;28;20207;-64
2023/08/31 00:36:50;;;;;;;2.43;1.60;;;;;;;;;;5100533;28;20201;-64
2023/08/31 00:39:20;;;;;;;3.37;1.67;;;;;;;;;;5100388;28;20208;-65
2023/08/31 00:41:50;;;;;;;5.27;1.77;;;;;;;;;;5102601;28;20247;-65
2023/08/31 00:44:18;;;;;;;1.97;1.87;;;;;;;;;;5109224;28;20208;-64
2023/08/31 00:46:47;;;;;;;4.77;1.97;;;;;;;;;;5109923;28;20239;-64
2023/08/31 00:49:15;;;;;;;2.63;1.70;;;;;;;;;;5105972;28;20250;-65
2023/08/31 00:51:48;;;;;;;4.10;1.87;;;;;;;;;;5110002;28;20230;-65
2023/08/31 00:54:18;;;;;;;2.40;1.53;;;;;;;;;;5117710;28;20604;-64
2023/08/31 00:56:46;;;;;;;1.97;1.43;;;;;;;;;;5107317;28;20251;-64
2023/08/31 00:59:14;;;;;;;2.40;1.67;;;;;;;;;;5105109;28;20207;-64
2023/08/31 01:01:44;;;;;;;5.17;2.43;;;;;;;;;;5110071;28;20243;-65
2023/08/31 01:04:17;;;;;;;2.93;1.60;;;;;;;;;;5100190;28;20315;-64
2023/08/31 01:06:50;;;;;;;3.17;1.60;;;;;;;;;;5103146;28;20203;-64
2023/08/31 01:09:22;;;;;;;4.47;1.47;;;;;;;;;;5103705;28;20201;-64
2023/08/31 01:11:57;;;;;;;1.97;1.53;;;;;;;;;;5108718;28;20235;-63
2023/08/31 01:14:26;;;;;;;3.13;1.73;;;;;;;;;;5099516;28;20202;-64
2023/08/31 01:16:55;;;;;;;1.73;1.53;;;;;;;;;;5099836;28;20207;-64
2023/08/31 01:19:31;;;;;;;1.60;1.50;;;;;;;;;;5099927;28;20201;-64
2023/08/31 01:22:03;;;;;;;2.33;1.50;;;;;;;;;;5099696;28;20236;-64
2023/08/31 01:24:33;;;;;;;2.27;1.40;;;;;;;;;;5105770;28;20210;-64
2023/08/31 01:27:01;;;;;;;4.00;1.77;;;;;;;;;;5105062;28;20210;-64
2023/08/31 01:29:30;;;;;;;4.40;1.80;;;;;;;;;;5113300;28;20212;-63
2023/08/31 01:31:58;;;;;;;2.80;1.80;;;;;;;;;;5096578;28;20205;-65
2023/08/31 01:34:26;;;;;;;1.97;1.77;;;;;;;;;;5115521;28;20189;-64
2023/08/31 01:36:58;;;;;;;2.13;1.50;;;;;;;;;;5111516;28;20212;-64
2023/08/31 01:39:29;;;;;;;4.13;1.90;;;;;;;;;;5106466;28;20197;-64
2023/08/31 01:42:02;;;;;;;4.57;2.00;;;;;;;;;;5100772;28;20222;-64
2023/08/31 01:44:32;;;;;;;2.13;1.90;;;;;;;;;;5103233;28;20249;-64
2023/08/31 01:47:06;;;;;;;1.80;1.63;;;;;;;;;;5116374;28;20201;-64
2023/08/31 01:49:37;;;;;;;3.17;2.20;;;;;;;;;;5107733;28;20289;-63
2023/08/31 01:52:05;;;;;;;2.33;1.80;;;;;;;;;;5117534;28;20231;-64
2023/08/31 01:54:34;;;;;;;5.17;2.10;;;;;;;;;;5107408;28;20193;-64
2023/08/31 01:57:04;;;;;;;1.97;1.67;;;;;;;;;;5112029;28;20235;-64
2023/08/31 01:59:32;;;;;;;3.47;1.93;;;;;;;;;;5119460;28;20208;-64
2023/08/31 02:02:00;;;;;;;2.70;1.83;;;;;;;;;;5120667;28;20239;-64
2023/08/31 02:04:28;;;;;;;1.77;1.67;;;;;;;;;;5114196;28;20259;-63
2023/08/31 02:06:56;;;;;;;2.97;1.80;;;;;;;;;;5120642;28;20254;-63
2023/08/31 02:09:24;;;;;;;1.90;1.70;;;;;;;;;;5120699;28;20205;-63
2023/08/31 02:11:52;;;;;;;2.50;1.83;;;;;;;;;;5119883;27;20217;-63
2023/08/31 02:14:22;;;;;;;2.40;1.80;;;;;;;;;;5121398;27;20193;-64
2023/08/31 02:16:50;;;;;;;2.10;1.90;;;;;;;;;;5120593;28;20200;-63
2023/08/31 02:19:19;;;;;;;5.03;2.07;;;;;;;;;;5120393;28;20273;-62
2023/08/31 02:21:46;;;;;;;2.20;1.90;;;;;;;;;;5106140;28;20326;-63
2023/08/31 02:24:14;;;;;;;3.20;2.27;;;;;;;;;;5120284;28;20684;-63
2023/08/31 02:26:42;;;;;;;2.20;1.87;;;;;;;;;;5113667;28;20251;-63
2023/08/31 02:29:10;;;;;;;2.33;1.70;;;;;;;;;;5099669;28;20202;-62
2023/08/31 02:31:41;;;;;;;2.53;1.50;;;;;;;;;;5114933;28;20221;-64
2023/08/31 02:34:09;;;;;;;2.27;1.87;;;;;;;;;;5106535;28;20250;-63
2023/08/31 02:36:37;;;;;;;3.77;2.43;;;;;;;;;;5099248;28;20201;-64
2023/08/31 02:39:06;;;;;;;2.80;1.60;;;;;;;;;;5105160;28;20646;-61
2023/08/31 02:41:34;;;;;;;1.87;1.77;;;;;;;;;;5115525;28;20265;-63
2023/08/31 02:44:02;;;;;;;4.03;1.40;;;;;;;;;;5119647;28;20257;-63
2023/08/31 02:46:31;;;;;;;5.13;1.70;;;;;;;;;;5114791;28;20203;-63
2023/08/31 02:49:00;;;;;;;2.43;1.60;;;;;;;;;;5115355;28;20193;-64
2023/08/31 02:51:28;;;;;;;2.43;1.50;;;;;;;;;;5116745;28;20590;-64
2023/08/31 02:53:57;;;;;;;2.77;1.50;;;;;;;;;;5114835;28;20199;-63
2023/08/31 02:56:25;;;;;;;3.60;1.47;;;;;;;;;;5114090;28;20228;-64
2023/08/31 02:58:53;;;;;;;2.57;1.77;;;;;;;;;;5117247;28;20198;-64
2023/08/31 03:01:21;;;;;;;2.13;1.30;;;;;;;;;;5116773;28;20237;-64
2023/08/31 03:03:49;;;;;;;4.77;1.47;;;;;;;;;;5114957;28;20217;-63
2023/08/31 03:06:18;;;;;;;2.07;1.80;;;;;;;;;;5117416;28;20228;-63
2023/08/31 03:08:46;;;;;;;4.97;1.80;;;;;;;;;;5119098;28;20225;-64
2023/08/31 03:11:15;;;;;;;4.20;1.77;;;;;;;;;;5115902;28;20226;-64
2023/08/31 03:13:43;;;;;;;6.90;2.47;;;;;;;;;;5119445;28;20199;-64
2023/08/31 03:16:14;;;;;;;2.37;1.67;;;;;;;;;;5119533;28;20264;-63
2023/08/31 03:18:43;;;;;;;2.83;1.80;;;;;;;;;;5116734;28;20200;-64
2023/08/31 03:21:11;;;;;;;2.63;1.63;;;;;;;;;;5119337;28;20247;-63
2023/08/31 03:23:41;;;;;;;2.50;1.57;;;;;;;;;;5116448;28;20227;-64
2023/08/31 03:26:10;;;;;;;3.87;1.70;;;;;;;;;;5114021;28;20197;-63
2023/08/31 03:28:40;;;;;;;1.73;1.60;;;;;;;;;;5118743;28;20214;-64
2023/08/31 03:31:09;;;;;;;2.80;2.07;;;;;;;;;;5117619;28;20256;-64
2023/08/31 03:33:37;;;;;;;3.17;1.40;;;;;;;;;;5117715;28;20194;-65
2023/08/31 03:36:06;;;;;;;1.93;1.27;;;;;;;;;;5117165;28;20207;-64
2023/08/31 03:38:37;;;;;;;1.50;1.40;;;;;;;;;;5118371;28;20205;-62
2023/08/31 03:41:07;;;;;;;2.03;1.50;;;;;;;;;;5114295;28;20262;-64
2023/08/31 03:43:36;;;;;;;2.17;1.70;;;;;;;;;;5116272;28;20222;-63
2023/08/31 03:46:04;;;;;;;1.63;1.53;;;;;;;;;;5108652;28;20235;-63
2023/08/31 03:48:32;;;;;;;2.13;1.70;;;;;;;;;;5110358;28;20224;-63
2023/08/31 03:51:00;;;;;;;2.70;1.50;;;;;;;;;;5115399;28;20221;-64
2023/08/31 03:53:30;;;;;;;2.03;1.63;;;;;;;;;;5099472;28;20207;-64
2023/08/31 03:55:58;;;;;;;1.83;1.50;;;;;;;;;;5102208;28;20205;-64
2023/08/31 03:58:28;;;;;;;2.50;1.77;;;;;;;;;;5114214;28;20254;-65
2023/08/31 04:00:56;;;;;;;1.97;1.60;;;;;;;;;;5118117;28;20669;-64
2023/08/31 04:03:24;;;;;;;2.47;1.90;;;;;;;;;;5111231;28;20572;-64
2023/08/31 04:05:54;;;;;;;2.43;1.60;;;;;;;;;;5118368;28;20221;-64
2023/08/31 04:08:22;;;;;;;3.43;1.97;;;;;;;;;;5118714;28;20201;-64
2023/08/31 04:10:50;;;;;;;1.83;1.70;;;;;;;;;;5118174;28;20309;-64
2023/08/31 04:13:18;;;;;;;1.93;1.20;;;;;;;;;;5117559;28;20271;-64
2023/08/31 04:15:48;;;;;;;3.13;1.33;;;;;;;;;;5118735;28;20233;-64
2023/08/31 04:18:16;;;;;;;2.13;1.50;;;;;;;;;;5118561;28;20239;-64
2023/08/31 04:20:49;;;;;;;1.93;1.60;;;;;;;;;;5117073;28;20229;-63
2023/08/31 04:23:17;;;;;;;1.83;1.50;;;;;;;;;;5118040;28;20308;-63
2023/08/31 04:25:45;;;;;;;1.90;1.50;;;;;;;;;;5118013;28;20711;-64
2023/08/31 04:28:13;;;;;;;1.90;1.70;;;;;;;;;;5110663;28;20673;-64
2023/08/31 04:30:41;;;;;;;2.57;1.50;;;;;;;;;;5102262;28;20224;-63
2023/08/31 04:33:12;;;;;;;6.73;1.80;;;;;;;;;;5109641;28;20228;-63
2023/08/31 04:35:41;;;;;;;1.70;1.40;;;;;;;;;;5108737;28;20207;-63
2023/08/31 04:38:09;;;;;;;3.87;1.80;;;;;;;;;;5106266;28;20230;-63
2023/08/31 04:40:37;;;;;;;4.93;1.80;;;;;;;;;;5115373;28;20250;-63
2023/08/31 04:43:05;;;;;;;6.53;1.73;;;;;;;;;;5097433;28;20572;-64
2023/08/31 04:45:33;;;;;;;4.53;1.80;;;;;;;;;;5100338;28;20222;-63
2023/08/31 04:48:03;;;;;;;2.57;1.40;;;;;;;;;;5104422;28;20227;-63
2023/08/31 04:50:32;;;;;;;2.40;1.33;;;;;;;;;;5105141;28;20216;-63
2023/08/31 04:53:00;;;;;;;2.47;1.57;;;;;;;;;;5104805;28;20202;-63
2023/08/31 04:55:28;;;;;;;2.33;1.33;;;;;;;;;;5117073;28;20661;-63
2023/08/31 04:57:57;;;;;;;3.47;1.80;;;;;;;;;;5099924;28;20206;-63
2023/08/31 05:00:25;;;;;;;1.73;1.43;;;;;;;;;;5111700;28;20696;-64
2023/08/31 05:02:53;;;;;;;1.40;1.30;;;;;;;;;;5096363;28;20233;-63
2023/08/31 05:05:21;;;;;;;1.80;1.17;;;;;;;;;;5099856;28;20260;-64
2023/08/31 05:07:51;;;;;;;2.63;1.30;;;;;;;;;;5101844;28;20717;-62
2023/08/31 05:10:19;;;;;;;1.40;1.23;;;;;;;;;;5103806;28;20634;-62
2023/08/31 05:12:47;;;;;;;4.67;1.60;;;;;;;;;;5111869;28;20660;-62
2023/08/31 05:15:15;;;;;;;4.27;1.63;;;;;;;;;;5112685;28;20530;-61
2023/08/31 05:17:43;;;;;;;5.87;2.10;;;;;;;;;;5117191;28;20204;-62
2023/08/31 05:20:11;;;;;;;3.57;1.57;;;;;;;;;;5115207;28;20219;-64
2023/08/31 05:22:39;;;;;;;2.73;1.37;;;;;;;;;;5115329;28;20648;-63
2023/08/31 05:25:09;;;;;;;9.13;2.07;;;;;;;;;;5118834;28;20269;-63
2023/08/31 05:27:37;;;;;;;2.53;1.47;;;;;;;;;;5116745;28;20205;-63
2023/08/31 05:30:06;;;;;;;5.60;2.07;;;;;;;;;;5107594;28;20225;-63
2023/08/31 05:32:34;;;;;;;5.20;2.23;;;;;;;;;;5113707;28;20202;-63
2023/08/31 05:35:03;;;;;;;6.40;2.17;;;;;;;;;;5120452;28;20222;-63
2023/08/31 05:37:33;;;;;;;7.00;2.00;;;;;;;;;;5115907;28;20226;-63
2023/08/31 05:40:01;;;;;;;4.13;1.60;;;;;;;;;;5112108;28;20239;-63
2023/08/31 05:42:30;;;;;;;2.20;1.97;;;;;;;;;;5106830;28;20209;-63
2023/08/31 05:44:58;;;;;;;3.37;2.10;;;;;;;;;;5104409;28;20217;-64
2023/08/31 05:47:26;;;;;;;3.90;2.30;;;;;;;;;;5104960;28;20604;-63
2023/08/31 05:49:55;;;;;;;3.03;1.60;;;;;;;;;;5111470;28;20315;-64
2023/08/31 05:52:23;;;;;;;2.87;1.70;;;;;;;;;;5100807;28;20235;-66
2023/08/31 05:54:51;;;;;;;2.50;1.70;;;;;;;;;;5118881;28;20204;-65
2023/08/31 05:57:20;;;;;;;2.77;1.80;;;;;;;;;;5111874;28;20197;-66
2023/08/31 05:59:50;;;;;;;3.10;1.80;;;;;;;;;;5121009;28;20205;-66
2023/08/31 06:02:18;;;;;;;2.73;1.97;;;;;;;;;;5118022;28;20258;-66
2023/08/31 06:04:46;;;;;;;1.77;1.50;;;;;;;;;;5120840;28;20205;-66
2023/08/31 06:07:14;;;;;;;1.73;1.60;;;;;;;;;;5121091;28;20208;-66
2023/08/31 06:09:43;;;;;;;2.40;1.40;;;;;;;;;;5120374;28;20564;-68
2023/08/31 06:12:11;;;;;;;2.70;1.70;;;;;;;;;;5120419;28;20205;-69
2023/08/31 06:14:39;;;;;;;2.63;2.00;;;;;;;;;;5120451;28;20564;-69
2023/08/31 06:17:11;;;;;;;2.40;1.90;;;;;;;;;;5122076;27;20257;-67
2023/08/31 06:19:39;;;;;;;4.33;1.90;;;;;;;;;;5110538;28;20265;-69
2023/08/31 06:22:07;;;;;;;2.73;2.03;;;;;;;;;;5116416;28;20193;-69
2023/08/31 06:24:36;;;;;;;2.73;2.17;;;;;;;;;;5118602;27;20201;-67
2023/08/31 06:27:05;;;;;;;7.10;2.77;;;;;;;;;;5113055;28;20261;-72
2023/08/31 06:29:33;;;;;;;3.03;1.80;;;;;;;;;;5099554;28;20198;-71
2023/08/31 06:32:01;;;;;;;4.33;1.80;;;;;;;;;;5107271;28;20205;-73
2023/08/31 06:34:30;;;;;;;2.20;1.87;;;;;;;;;;5116967;28;20205;-71
2023/08/31 06:36:59;;;;;;;4.47;2.10;;;;;;;;;;5101805;28;20202;-72
2023/08/31 06:39:27;;;;;;;5.37;2.53;;;;;;;;;;5112261;28;20246;-72
2023/08/31 06:41:54;;;;;;;4.77;1.80;;;;;;;;;;5115419;28;20222;-74
2023/08/31 06:44:22;;;;;;;3.03;1.87;;;;;;;;;;5100928;28;20684;-74
2023/08/31 06:46:50;;;;;;;8.00;5.10;;;;;;;;;;5103445;28;20221;-73
2023/08/31 06:49:20;;;;;;;2.13;1.83;;;;;;;;;;5105627;28;20197;-74
2023/08/31 06:51:49;;;;;;;5.03;2.30;;;;;;;;;;5105134;28;20221;-74
2023/08/31 06:54:17;;;;;;;3.33;1.73;;;;;;;;;;5105831;28;20219;-75
2023/08/31 06:56:45;;;;;;;3.60;1.30;;;;;;;;;;5106276;28;20198;-76
2023/08/31 06:59:13;;;;;;;5.77;1.50;;;;;;;;;;5118801;28;20215;-75
2023/08/31 07:01:41;;;;;;;2.57;1.73;;;;;;;;;;5106616;28;20628;-76
2023/08/31 07:04:09;;;;;;;2.20;1.33;;;;;;;;;;5098757;28;20680;-77
2023/08/31 07:06:38;;;;;;;3.10;1.37;;;;;;;;;;5103938;28;20320;-79
2023/08/31 07:09:08;;;;;;;3.87;1.30;;;;;;;;;;5117379;28;20210;-76
2023/08/31 07:11:36;;;;;;;4.00;1.47;;;;;;;;;;5116812;28;20225;-76
2023/08/31 07:14:04;;;;;;;2.97;1.30;;;;;;;;;;5119009;28;20212;-73
2023/08/31 07:16:32;;;;;;;2.60;1.20;;;;;;;;;;5101999;28;20206;-72
2023/08/31 07:19:00;;;;;;;1.63;1.10;;;;;;;;;;5110013;28;20204;-74
2023/08/31 07:21:28;;;;;;;3.43;1.23;;;;;;;;;;5108923;28;20932;-68
2023/08/31 07:23:57;;;;;;;6.10;2.00;;;;;;;;;;5102049;28;20203;-66
2023/08/31 07:26:26;;;;;;;3.63;1.40;;;;;;;;;;5109304;28;20229;-68
2023/08/31 07:28:54;;;;;;;2.87;1.43;;;;;;;;;;5097976;28;20206;-70
2023/08/31 07:31:22;;;;;;;2.43;1.40;;;;;;;;;;5105718;28;20221;-66
2023/08/31 07:33:50;;;;;;;6.37;1.60;;;;;;;;;;5110683;27;20203;-66
2023/08/31 07:36:18;;;;;;;3.13;1.27;;;;;;;;;;5102283;28;20207;-68
2023/08/31 07:38:46;;;;;;;3.07;1.50;;;;;;;;;;5102400;28;20205;-68
2023/08/31 07:41:14;;;;;;;1.20;1.10;;;;;;;;;;5106955;28;20674;-69
2023/08/31 07:43:44;;;;;;;1.93;1.00;;;;;;;;;;5106796;28;20202;-68
2023/08/31 07:46:30;;;;;;;2.47;1.10;;;;;;;;;;5102098;28;20220;-68
2023/08/31 07:48:58;;;;;;;2.13;1.00;;;;;;;;;;5113129;28;20203;-69
2023/08/31 07:51:26;;;;;;;2.03;0.93;;;;;;;;;;5098449;28;20269;-68
2023/08/31 07:53:54;;;;;;;4.77;2.07;;;;;;;;;;5109153;28;20211;-76
2023/08/31 07:56:23;;;;;;;3.93;1.33;;;;;;;;;;5110203;28;20196;-73
2023/08/31 07:58:52;;;;;;;3.53;1.57;;;;;;;;;;5112439;28;20208;-74
2023/08/31 08:01:20;;;;;;;2.80;1.60;;;;;;;;;;5107808;28;20261;-76
2023/08/31 08:03:49;;;;;;;4.10;1.20;;;;;;;;;;5110427;28;20668;-78
2023/08/31 08:06:17;;;;;;;1.70;1.03;;;;;;;;;;5118999;28;20224;-81
2023/08/31 08:08:45;;;;;;;2.97;1.20;;;;;;;;;;5118534;28;20641;-72
2023/08/31 08:11:13;;;;;;;2.23;1.03;;;;;;;;;;5114407;28;20225;-76
2023/08/31 08:13:41;;;;;;;2.13;1.20;;;;;;;;;;5102860;28;20631;-73
2023/08/31 08:16:11;;;;;;;1.10;1.00;;;;;;;;;;5117438;28;20194;-72
2023/08/31 08:18:39;;;;;;;1.57;1.27;;;;;;;;;;5103026;28;20662;-75
2023/08/31 08:21:07;;;;;;;3.33;1.50;;;;;;;;;;5097162;28;20226;-76
2023/08/31 08:23:35;;;;;;;2.13;1.30;;;;;;;;;;5100835;28;20612;-76
2023/08/31 08:26:03;;;;;;;2.87;1.30;;;;;;;;;;5100924;28;20203;-74
2023/08/31 08:28:31;;;;;;;2.40;1.40;;;;;;;;;;5112393;28;20211;-75
2023/08/31 08:31:03;;;;;;;3.00;1.00;;;;;;;;;;5104694;28;20223;-73
2023/08/31 08:33:32;;;;;;;1.40;1.07;;;;;;;;;;5103147;28;20242;-73
2023/08/31 08:36:00;;;;;;;2.03;1.20;;;;;;;;;;5100002;28;20245;-71
2023/08/31 08:38:28;;;;;;;4.83;1.10;;;;;;;;;;5104765;28;20720;-71
2023/08/31 08:40:56;;;;;;;3.27;1.40;;;;;;;;;;5116944;28;20238;-71
2023/08/31 08:43:26;;;;;;;2.20;1.10;;;;;;;;;;5104227;28;20202;-72
2023/08/31 08:45:55;;;;;;;2.17;1.67;;;;;;;;;;5116791;28;20232;-72
2023/08/31 08:48:23;;;;;;;4.20;1.43;;;;;;;;;;5114707;28;20218;-73
2023/08/31 08:50:54;;;;;;;3.40;1.20;;;;;;;;;;5120076;27;20221;-72
2023/08/31 08:53:22;;;;;;;1.30;1.10;;;;;;;;;;5101337;28;20206;-73
2023/08/31 08:55:50;;;;;;;2.43;1.20;;;;;;;;;;5103994;28;20241;-73
2023/08/31 08:58:18;;;;;;;9.03;1.27;;;;;;;;;;5110278;28;20203;-72
2023/08/31 09:00:47;;;;;;;2.40;1.40;;;;;;;;;;5120938;28;20216;-71
2023/08/31 09:03:15;;;;;;;2.97;1.53;;;;;;;;;;5120666;28;20323;-72
2023/08/31 09:05:45;;;;;;;4.63;1.50;;;;;;;;;;5117596;28;20197;-72
2023/08/31 09:08:17;;;;;;;2.90;1.60;;;;;;;;;;5104196;28;20221;-72
2023/08/31 09:10:45;;;;;;;2.00;1.33;;;;;;;;;;5112123;28;20221;-71
2023/08/31 09:13:15;;;;;;;3.87;1.90;;;;;;;;;;5112672;28;20208;-72
2023/08/31 09:15:44;;;;;;;3.33;1.83;;;;;;;;;;5117250;28;20243;-71
2023/08/31 09:18:16;;;;;;;3.30;1.60;;;;;;;;;;5101633;28;20201;-72
2023/08/31 09:20:45;;;;;;;2.83;1.20;;;;;;;;;;5114266;28;20222;-72
2023/08/31 09:23:13;;;;;;;2.67;1.70;;;;;;;;;;5112472;28;20205;-73
2023/08/31 09:25:48;;;;;;;3.40;1.20;;;;;;;;;;5117161;28;20202;-75
2023/08/31 09:28:17;;;;;;;3.03;1.30;;;;;;;;;;5105483;27;20217;-75
2023/08/31 09:30:46;;;;;;;4.53;1.30;;;;;;;;;;5115101;27;20278;-80
2023/08/31 09:33:16;;;;;;;2.33;1.30;;;;;;;;;;5117834;27;20276;-72
2023/08/31 09:35:48;;;;;;;3.20;1.53;;;;;;;;;;5114368;28;20208;-71
2023/08/31 09:38:17;;;;;;;2.03;1.50;;;;;;;;;;5113650;27;20207;-69
2023/08/31 09:40:50;;;;;;;1.50;1.07;;;;;;;;;;5118679;28;20234;-69
2023/08/31 09:43:22;;;;;;;3.63;1.37;;;;;;;;;;5103604;28;20203;-70
2023/08/31 09:45:53;;;;;;;3.57;1.70;;;;;;;;;;5118953;28;20206;-70
2023/08/31 09:48:22;;;;;;;3.57;1.37;;;;;;;;;;5109974;28;20267;-72
2023/08/31 09:50:52;;;;;;;1.63;1.03;;;;;;;;;;5103021;28;20307;-70
2023/08/31 09:53:22;;;;;;;2.50;1.10;;;;;;;;;;5106031;28;20204;-69
2023/08/31 09:55:52;;;;;;;1.50;1.10;;;;;;;;;;5111875;28;20245;-70
2023/08/31 09:58:21;;;;;;;2.00;1.30;;;;;;;;;;5113029;28;20659;-68
2023/08/31 10:00:50;;;;;;;2.47;1.30;;;;;;;;;;5120233;28;20231;-67
2023/08/31 10:03:18;;;;;;;3.27;1.40;;;;;;;;;;5120624;27;20235;-67
2023/08/31 10:05:48;;;;;;;2.80;1.20;;;;;;;;;;5121095;28;20217;-67
2023/08/31 10:08:16;;;;;;;1.07;1.00;;;;;;;;;;5120475;28;20253;-69
2023/08/31 10:10:45;;;;;;;1.27;0.90;;;;;;;;;;5120340;28;20236;-70
2023/08/31 10:13:14;;;;;;;4.17;1.40;;;;;;;;;;5120016;28;20211;-70
2023/08/31 10:15:44;;;;;;;1.93;1.30;;;;;;;;;;5120468;28;20206;-70
2023/08/31 10:18:12;;;;;;;3.17;1.33;;;;;;;;;;5117934;27;20209;-69
2023/08/31 10:20:43;;;;;;;5.50;1.40;;;;;;;;;;5119453;28;20220;-70
2023/08/31 10:23:12;;;;;;;2.60;1.83;;;;;;;;;;5103136;28;20235;-70
2023/08/31 10:25:59;;;;;;;3.30;1.40;;;;;;;;;;5121502;27;20219;-70
2023/08/31 10:28:28;;;;;;;3.73;1.63;;;;;;;;;;5120359;28;20241;-70
2023/08/31 10:31:03;;;;;;;2.53;1.30;;;;;;;;;;5110194;28;20227;-69
2023/08/31 10:33:32;;;;;;;1.80;1.20;;;;;;;;;;5108258;28;20693;-69
2023/08/31 10:36:01;;;;;;;3.73;1.20;;;;;;;;;;5111545;28;20205;-69
2023/08/31 10:38:30;;;;;;;1.20;1.10;;;;;;;;;;5102502;28;20200;-69
2023/08/31 10:41:03;;;;;;;2.70;1.00;;;;;;;;;;5118066;28;20220;-69
2023/08/31 10:43:57;;;;;;;4.50;1.50;;;;;;;;;;5102244;28;20228;-70
2023/08/31 10:46:30;;;;;;;1.33;1.10;;;;;;;;;;5088765;28;20201;-70
2023/08/31 10:48:59;;;;;;;3.33;1.47;;;;;;;;;;5105158;28;20261;-69
2023/08/31 10:51:28;;;;;;;2.67;1.10;;;;;;;;;;5114048;28;20308;-69
2023/08/31 10:54:09;;;;;;;3.20;1.30;;;;;;;;;;5112167;28;20197;-69
2023/08/31 10:57:13;;;;;;;1.10;1.00;;;;;;;;;;5109127;28;20660;-69
2023/08/31 10:59:48;;;;;;;3.10;1.47;;;;;;;;;;5076918;28;20213;-68
2023/08/31 11:02:31;;;;;;;1.90;1.23;;;;;;;;;;5091910;28;20640;-68
2023/08/31 11:05:04;;;;;;;1.20;1.00;;;;;;;;;;5093130;28;20231;-69
2023/08/31 11:07:34;;;;;;;1.00;0.73;;;;;;;;;;5104466;28;20208;-69
2023/08/31 11:10:08;;;;;;;2.40;1.20;;;;;;;;;;5107963;28;20224;-69
2023/08/31 11:12:36;;;;;;;2.27;1.10;;;;;;;;;;5109129;28;20210;-71
2023/08/31 11:15:04;;;;;;;2.10;1.20;;;;;;;;;;5101170;28;20199;-69
2023/08/31 11:17:34;;;;;;;2.57;1.43;;;;;;;;;;5106360;28;20211;-69
2023/08/31 11:20:05;;;;;;;3.20;1.10;;;;;;;;;;5108432;28;20243;-69
2023/08/31 11:22:33;;;;;;;5.00;1.40;;;;;;;;;;5106679;28;20204;-69
2023/08/31 11:25:03;;;;;;;3.53;1.40;;;;;;;;;;5118847;28;20641;-69
2023/08/31 11:27:31;;;;;;;1.50;1.03;;;;;;;;;;5104959;28;20210;-69
2023/08/31 11:29:59;;;;;;;4.10;1.50;;;;;;;;;;5106327;28;20601;-69
2023/08/31 11:32:28;;;;;;;3.37;1.40;;;;;;;;;;5109782;28;20202;-69
2023/08/31 11:34:58;;;;;;;2.83;1.50;;;;;;;;;;5113573;28;20203;-69
2023/08/31 11:37:27;;;;;;;2.20;1.30;;;;;;;;;;5100590;28;20660;-69
2023/08/31 11:39:54;;;;;;;2.90;1.07;;;;;;;;;;5103795;28;20216;-69
2023/08/31 11:42:23;;;;;;;3.10;1.40;;;;;;;;;;5120720;27;20204;-69
2023/08/31 11:44:53;;;;;;;2.13;1.53;;;;;;;;;;5108321;27;20209;-68
2023/08/31 11:47:22;;;;;;;2.13;1.93;;;;;;;;;;5105472;28;20206;-70
2023/08/31 11:49:50;;;;;;;4.77;1.40;;;;;;;;;;5118322;28;20607;-74
2023/08/31 11:52:19;;;;;;;1.73;1.40;;;;;;;;;;5110803;28;20202;-74
2023/08/31 11:54:52;;;;;;;3.03;1.30;;;;;;;;;;5108507;28;20201;-74
2023/08/31 11:57:26;;;;;;;1.73;1.23;;;;;;;;;;5110001;28;20238;-74
2023/08/31 11:59:55;;;;;;;1.83;1.03;;;;;;;;;;5112186;28;20325;-74
2023/08/31 12:02:23;;;;;;;2.33;1.30;;;;;;;;;;5118346;28;20224;-74
2023/08/31 12:04:51;;;;;;;1.23;0.90;;;;;;;;;;5118819;28;20213;-74
2023/08/31 12:07:20;;;;;;;1.67;1.37;;;;;;;;;;5118809;28;20266;-74
2023/08/31 12:09:49;;;;;;;4.47;1.20;;;;;;;;;;5118323;28;20235;-74
2023/08/31 12:12:21;;;;;;;2.10;1.10;;;;;;;;;;5118108;28;20211;-74
2023/08/31 12:14:53;;;;;;;2.77;1.20;;;;;;;;;;5118119;28;20214;-74
2023/08/31 12:17:21;;;;;;;2.87;1.10;;;;;;;;;;5111213;28;20204;-74
2023/08/31 12:19:49;;;;;;;2.03;1.00;;;;;;;;;;5117436;28;20205;-74
2023/08/31 12:22:17;;;;;;;2.93;1.00;;;;;;;;;;5118188;28;20228;-74
2023/08/31 12:24:47;;;;;;;2.33;1.60;;;;;;;;;;5117971;28;20226;-74
2023/08/31 12:27:15;;;;;;;1.70;1.30;;;;;;;;;;5113697;28;20213;-74
2023/08/31 12:29:43;;;;;;;2.27;1.13;;;;;;;;;;5116843;28;20221;-75
2023/08/31 12:32:12;;;;;;;2.10;2.00;;;;;;;;;;5115669;28;20651;-76
2023/08/31 12:34:40;;;;;;;2.53;1.03;;;;;;;;;;5113213;28;20246;-75
2023/08/31 12:37:08;;;;;;;2.53;1.20;;;;;;;;;;5116562;28;20258;-76
2023/08/31 12:39:37;;;;;;;3.63;1.50;;;;;;;;;;5104792;28;20203;-75
2023/08/31 12:42:07;;;;;;;3.60;1.33;;;;;;;;;;5111355;28;20230;-75
2023/08/31 12:44:50;;;;;;;1.53;1.13;;;;;;;;;;5117167;28;20242;-72
2023/08/31 12:47:18;;;;;;;2.87;1.37;;;;;;;;;;5113169;28;20201;-73
2023/08/31 12:49:46;;;;;;;2.20;1.30;;;;;;;;;;5114682;28;20744;-73
2023/08/31 12:52:14;;;;;;;4.83;1.37;;;;;;;;;;5111668;28;20255;-73
2023/08/31 12:54:45;;;;;;;10.07;1.57;;;;;;;;;;5116484;28;20724;-74
2023/08/31 12:57:17;;;;;;;4.37;2.00;;;;;;;;;;5113620;28;20197;-74
2023/08/31 12:59:45;;;;;;;3.27;1.50;;;;;;;;;;5117199;28;20644;-73
2023/08/31 13:02:14;;;;;;;2.60;1.27;;;;;;;;;;5103973;28;20281;-74
2023/08/31 13:04:42;;;;;;;1.30;1.20;;;;;;;;;;5116042;28;20207;-73
2023/08/31 13:07:10;;;;;;;3.00;1.27;;;;;;;;;;5111376;28;20229;-76
2023/08/31 13:09:38;;;;;;;2.73;1.23;;;;;;;;;;5101233;28;20299;-74
2023/08/31 13:12:07;;;;;;;1.37;1.27;;;;;;;;;;5105089;28;20258;-73
2023/08/31 13:14:36;;;;;;;3.07;1.30;;;;;;;;;;5101821;28;20573;-75
2023/08/31 13:17:05;;;;;;;1.10;0.97;;;;;;;;;;5103913;28;20203;-78
2023/08/31 13:19:33;;;;;;;2.10;1.20;;;;;;;;;;5102948;28;20196;-79
2023/08/31 13:22:01;;;;;;;3.60;1.40;;;;;;;;;;5117967;28;20207;-76
2023/08/31 13:24:29;;;;;;;3.07;1.30;;;;;;;;;;5117786;28;20237;-76
2023/08/31 13:26:58;;;;;;;2.43;1.20;;;;;;;;;;5103142;28;20659;-75
2023/08/31 13:29:26;;;;;;;3.27;1.63;;;;;;;;;;5118202;28;20239;-78
2023/08/31 13:31:55;;;;;;;2.60;1.40;;;;;;;;;;5108517;28;20270;-75
2023/08/31 13:34:23;;;;;;;1.97;1.23;;;;;;;;;;5120592;28;20198;-72
2023/08/31 13:36:51;;;;;;;2.40;1.33;;;;;;;;;;5108916;28;20205;-73
2023/08/31 13:39:19;;;;;;;2.13;1.50;;;;;;;;;;5106206;28;20214;-76
2023/08/31 13:41:47;;;;;;;4.10;1.70;;;;;;;;;;5106898;28;20225;-73
2023/08/31 13:44:15;;;;;;;2.27;1.47;;;;;;;;;;5121495;28;20235;-74
2023/08/31 13:46:43;;;;;;;2.77;1.03;;;;;;;;;;5111023;28;20202;-76
2023/08/31 13:49:13;;;;;;;2.67;1.20;;;;;;;;;;5121052;28;20673;-73
2023/08/31 13:51:41;;;;;;;2.87;1.30;;;;;;;;;;5121346;28;20223;-76
2023/08/31 13:54:14;;;;;;;1.63;1.10;;;;;;;;;;5121090;28;20259;-73
2023/08/31 13:56:43;;;;;;;2.13;1.17;;;;;;;;;;5120994;28;20240;-77
2023/08/31 13:59:11;;;;;;;1.57;1.10;;;;;;;;;;5114516;28;20208;-78
2023/08/31 14:01:40;;;;;;;2.87;1.33;;;;;;;;;;5120890;28;20247;-75
2023/08/31 14:04:08;;;;;;;7.67;1.50;;;;;;;;;;5122137;27;20199;-75
2023/08/31 14:06:37;;;;;;;4.80;1.47;;;;;;;;;;5107472;28;20214;-75
2023/08/31 14:09:07;;;;;;;1.93;1.40;;;;;;;;;;5119424;28;20234;-76
2023/08/31 14:11:39;;;;;;;1.33;1.00;;;;;;;;;;5109419;28;20697;-79
2023/08/31 14:14:10;;;;;;;1.53;0.80;;;;;;;;;;5104174;28;20213;-74
2023/08/31 14:16:38;;;;;;;2.17;1.10;;;;;;;;;;5104408;28;20230;-77
2023/08/31 14:19:06;;;;;;;1.40;0.80;;;;;;;;;;5120596;27;20211;-75
2023/08/31 14:21:34;;;;;;;3.87;1.53;;;;;;;;;;5110199;28;20264;-75
2023/08/31 14:24:04;;;;;;;2.00;1.20;;;;;;;;;;5110170;28;20727;-75
2023/08/31 14:26:32;;;;;;;3.40;1.00;;;;;;;;;;5119159;27;20212;-74
2023/08/31 14:29:00;;;;;;;1.87;1.33;;;;;;;;;;5120530;27;20207;-74
2023/08/31 14:31:28;;;;;;;3.57;1.10;;;;;;;;;;5106159;28;20691;-74
2023/08/31 14:33:56;;;;;;;5.20;1.40;;;;;;;;;;5117302;28;20250;-72
2023/08/31 14:36:27;;;;;;;3.73;1.77;;;;;;;;;;5102636;28;20682;-72
2023/08/31 14:38:54;;;;;;;1.67;0.97;;;;;;;;;;5103530;28;20208;-71
2023/08/31 14:41:24;;;;;;;1.90;0.97;;;;;;;;;;5112701;28;20217;-73
2023/08/31 14:43:52;;;;;;;2.63;1.20;;;;;;;;;;5104437;28;20205;-73
2023/08/31 14:46:21;;;;;;;3.43;1.10;;;;;;;;;;5100658;28;20653;-74
2023/08/31 14:48:49;;;;;;;3.50;1.37;;;;;;;;;;5120112;28;20237;-76
2023/08/31 14:51:17;;;;;;;9.20;4.37;;;;;;;;;;5116248;28;20347;-73
2023/08/31 14:53:45;;;;;;;2.27;1.40;;;;;;;;;;5104360;27;20215;-68
2023/08/31 14:56:13;;;;;;;3.43;1.50;;;;;;;;;;5105185;28;20206;-70